sensor_id;sensor_type;location;lat;lon;timestamp;pressure;altitude;pressure_sealevel;temperature;humidity
75913;BME280;64592;52.168;21.040;2023-04-15T00:02:16;99609.84;;;11.15;71.02
75913;BME280;64592;52.168;21.040;2023-04-15T00:07:18;99609.97;;;11.14;71.00
75913;BME280;64592;52.168;21.040;2023-04-15T00:12:19;99598.47;;;11.12;72.21
75913;BME280;64592;52.168;21.040;2023-04-15T00:17:23;99606.41;;;11.04;73.88
75913;BME280;64592;52.168;21.040;2023-04-15T00:22:25;99597.69;;;10.90;75.79
75913;BME280;64592;52.168;21.040;2023-04-15T00:27:27;99602.97;;;10.92;76.75
75913;BME280;64592;52.168;21.040;2023-04-15T00:32:30;99599.81;;;10.87;77.33
75913;BME280;64592;52.168;21.040;2023-04-15T00:37:31;99597.69;;;10.81;75.74
75913;BME280;64592;52.168;21.040;2023-04-15T00:42:35;99595.13;;;10.79;75.96
75913;BME280;64592;52.168;21.040;2023-04-15T00:47:40;99589.84;;;10.78;76.62
75913;BME280;64592;52.168;21.040;2023-04-15T00:52:41;99577.66;;;10.74;76.10
75913;BME280;64592;52.168;21.040;2023-04-15T00:57:43;99598.34;;;10.73;76.28
75913;BME280;64592;52.168;21.040;2023-04-15T01:02:46;99592.66;;;10.67;76.90
75913;BME280;64592;52.168;21.040;2023-04-15T01:07:48;99598.56;;;10.61;76.92
75913;BME280;64592;52.168;21.040;2023-04-15T01:12:50;99589.19;;;10.55;79.01
75913;BME280;64592;52.168;21.040;2023-04-15T01:17:53;99598.53;;;10.51;79.74
75913;BME280;64592;52.168;21.040;2023-04-15T01:22:55;99591.38;;;10.40;81.13
75913;BME280;64592;52.168;21.040;2023-04-15T01:27:58;99594.47;;;10.36;81.53
75913;BME280;64592;52.168;21.040;2023-04-15T01:33:00;99594.72;;;10.33;82.64
75913;BME280;64592;52.168;21.040;2023-04-15T01:38:04;99598.69;;;10.29;82.49
75913;BME280;64592;52.168;21.040;2023-04-15T01:43:08;99598.94;;;10.26;83.13
75913;BME280;64592;52.168;21.040;2023-04-15T01:48:09;99583.31;;;10.20;82.69
75913;BME280;64592;52.168;21.040;2023-04-15T01:53:11;99591.63;;;10.17;82.62
75913;BME280;64592;52.168;21.040;2023-04-15T01:58:14;99598.84;;;10.16;82.44
75913;BME280;64592;52.168;21.040;2023-04-15T02:03:16;99592.38;;;10.19;82.76
75913;BME280;64592;52.168;21.040;2023-04-15T02:08:18;99593.38;;;10.18;82.99
75913;BME280;64592;52.168;21.040;2023-04-15T02:13:21;99587.50;;;10.12;83.35
75913;BME280;64592;52.168;21.040;2023-04-15T02:18:22;99590.91;;;10.15;83.49
75913;BME280;64592;52.168;21.040;2023-04-15T02:23:24;99586.50;;;10.13;84.96
75913;BME280;64592;52.168;21.040;2023-04-15T02:28:27;99594.72;;;10.12;83.44
75913;BME280;64592;52.168;21.040;2023-04-15T02:33:29;99589.75;;;10.07;84.05
75913;BME280;64592;52.168;21.040;2023-04-15T02:38:31;99588.59;;;10.10;84.13
75913;BME280;64592;52.168;21.040;2023-04-15T02:43:34;99591.16;;;10.11;84.21
75913;BME280;64592;52.168;21.040;2023-04-15T02:48:37;99585.06;;;10.09;83.69
75913;BME280;64592;52.168;21.040;2023-04-15T02:53:38;99579.94;;;10.06;84.48
75913;BME280;64592;52.168;21.040;2023-04-15T02:58:42;99570.16;;;10.05;84.92
75913;BME280;64592;52.168;21.040;2023-04-15T03:03:45;99584.34;;;10.07;84.85
75913;BME280;64592;52.168;21.040;2023-04-15T03:08:46;99594.28;;;10.07;85.18
75913;BME280;64592;52.168;21.040;2023-04-15T03:13:49;99577.06;;;9.98;85.73
75913;BME280;64592;52.168;21.040;2023-04-15T03:18:51;99588.28;;;10.03;85.89
75913;BME280;64592;52.168;21.040;2023-04-15T03:23:53;99587.53;;;10.01;85.48
75913;BME280;64592;52.168;21.040;2023-04-15T03:28:57;99574.63;;;9.95;85.71
75913;BME280;64592;52.168;21.040;2023-04-15T03:33:58;99586.25;;;9.96;85.79
75913;BME280;64592;52.168;21.040;2023-04-15T03:39:00;99584.53;;;9.95;85.93
75913;BME280;64592;52.168;21.040;2023-04-15T03:44:04;99586.00;;;9.99;85.55
75913;BME280;64592;52.168;21.040;2023-04-15T03:49:06;99589.66;;;9.98;85.90
75913;BME280;64592;52.168;21.040;2023-04-15T03:54:08;99591.50;;;9.97;86.08
75913;BME280;64592;52.168;21.040;2023-04-15T03:59:11;99584.16;;;9.99;85.97
75913;BME280;64592;52.168;21.040;2023-04-15T04:04:12;99598.72;;;9.97;86.31
75913;BME280;64592;52.168;21.040;2023-04-15T04:09:14;99594.94;;;9.99;86.33
75913;BME280;64592;52.168;21.040;2023-04-15T04:14:17;99592.22;;;9.99;86.64
75913;BME280;64592;52.168;21.040;2023-04-15T04:19:19;99604.63;;;9.91;86.87
75913;BME280;64592;52.168;21.040;2023-04-15T04:24:20;99599.38;;;9.89;87.43
75913;BME280;64592;52.168;21.040;2023-04-15T04:29:23;99588.72;;;9.88;87.83
75913;BME280;64592;52.168;21.040;2023-04-15T04:34:25;99583.34;;;9.88;87.95
75913;BME280;64592;52.168;21.040;2023-04-15T04:39:27;99588.59;;;9.89;87.49
75913;BME280;64592;52.168;21.040;2023-04-15T04:44:30;99588.59;;;9.89;87.55
75913;BME280;64592;52.168;21.040;2023-04-15T04:49:32;99592.41;;;9.87;87.34
75913;BME280;64592;52.168;21.040;2023-04-15T04:54:34;99589.13;;;9.83;87.74
75913;BME280;64592;52.168;21.040;2023-04-15T04:59:37;99592.69;;;9.84;88.33
75913;BME280;64592;52.168;21.040;2023-04-15T05:04:38;99590.56;;;9.87;87.97
75913;BME280;64592;52.168;21.040;2023-04-15T05:09:41;99589.84;;;9.85;88.73
75913;BME280;64592;52.168;21.040;2023-04-15T05:14:44;99596.69;;;9.89;88.36
75913;BME280;64592;52.168;21.040;2023-04-15T05:19:46;99591.53;;;9.86;87.85
75913;BME280;64592;52.168;21.040;2023-04-15T05:24:47;99603.56;;;9.82;88.69
75913;BME280;64592;52.168;21.040;2023-04-15T05:29:50;99601.22;;;9.89;88.21
75913;BME280;64592;52.168;21.040;2023-04-15T05:34:52;99604.16;;;9.86;89.97
75913;BME280;64592;52.168;21.040;2023-04-15T05:39:54;99607.69;;;9.86;89.18
75913;BME280;64592;52.168;21.040;2023-04-15T05:44:57;99606.00;;;9.85;89.32
75913;BME280;64592;52.168;21.040;2023-04-15T05:49:59;99608.69;;;9.85;89.77
75913;BME280;64592;52.168;21.040;2023-04-15T05:55:00;99611.66;;;9.82;89.48
75913;BME280;64592;52.168;21.040;2023-04-15T06:00:07;99599.16;;;9.81;89.81
75913;BME280;64592;52.168;21.040;2023-04-15T06:05:09;99607.25;;;9.81;90.42
75913;BME280;64592;52.168;21.040;2023-04-15T06:10:11;99611.66;;;9.82;90.41
75913;BME280;64592;52.168;21.040;2023-04-15T06:15:14;99620.81;;;9.80;89.53
75913;BME280;64592;52.168;21.040;2023-04-15T06:20:16;99618.75;;;9.83;90.63
75913;BME280;64592;52.168;21.040;2023-04-15T06:25:18;99618.75;;;9.83;90.79
75913;BME280;64592;52.168;21.040;2023-04-15T06:30:21;99620.13;;;9.78;90.46
75913;BME280;64592;52.168;21.040;2023-04-15T06:35:22;99625.50;;;9.78;90.85
75913;BME280;64592;52.168;21.040;2023-04-15T06:40:24;99624.38;;;9.80;90.56
75913;BME280;64592;52.168;21.040;2023-04-15T06:45:27;99623.50;;;9.80;90.17
75913;BME280;64592;52.168;21.040;2023-04-15T06:50:29;99635.88;;;9.82;89.83
75913;BME280;64592;52.168;21.040;2023-04-15T06:55:30;99632.19;;;9.83;90.18
75913;BME280;64592;52.168;21.040;2023-04-15T07:00:34;99634.16;;;9.81;90.71
75913;BME280;64592;52.168;21.040;2023-04-15T07:05:38;99640.00;;;9.86;90.42
75913;BME280;64592;52.168;21.040;2023-04-15T07:10:40;99651.63;;;9.87;89.55
75913;BME280;64592;52.168;21.040;2023-04-15T07:15:43;99659.84;;;9.85;90.09
75913;BME280;64592;52.168;21.040;2023-04-15T07:20:45;99647.03;;;9.78;90.18
75913;BME280;64592;52.168;21.040;2023-04-15T07:25:47;99654.72;;;9.82;91.11
75913;BME280;64592;52.168;21.040;2023-04-15T07:30:50;99651.91;;;9.84;90.59
75913;BME280;64592;52.168;21.040;2023-04-15T07:35:52;99657.97;;;9.86;90.97
75913;BME280;64592;52.168;21.040;2023-04-15T07:40:54;99656.16;;;9.86;90.02
75913;BME280;64592;52.168;21.040;2023-04-15T07:45:57;99652.75;;;9.84;90.64
75913;BME280;64592;52.168;21.040;2023-04-15T07:50:59;99648.34;;;9.83;90.68
75913;BME280;64592;52.168;21.040;2023-04-15T07:56:02;99650.19;;;9.83;90.52
75913;BME280;64592;52.168;21.040;2023-04-15T08:01:05;99655.69;;;9.81;90.56
75913;BME280;64592;52.168;21.040;2023-04-15T08:06:07;99657.28;;;9.84;91.18
75913;BME280;64592;52.168;21.040;2023-04-15T08:11:08;99649.09;;;9.85;91.30
75913;BME280;64592;52.168;21.040;2023-04-15T08:16:17;99653.63;;;9.85;90.46
75913;BME280;64592;52.168;21.040;2023-04-15T08:21:19;99652.59;;;9.86;90.36
75913;BME280;64592;52.168;21.040;2023-04-15T08:26:21;99653.34;;;9.88;91.21
75913;BME280;64592;52.168;21.040;2023-04-15T08:31:25;99658.19;;;9.94;90.69
75913;BME280;64592;52.168;21.040;2023-04-15T08:36:27;99663.59;;;9.94;90.51
75913;BME280;64592;52.168;21.040;2023-04-15T08:41:33;99659.78;;;9.96;90.79
75913;BME280;64592;52.168;21.040;2023-04-15T08:46:37;99655.13;;;9.98;91.25
75913;BME280;64592;52.168;21.040;2023-04-15T08:51:39;99666.50;;;10.02;90.94
75913;BME280;64592;52.168;21.040;2023-04-15T08:56:41;99656.31;;;10.05;90.84
75913;BME280;64592;52.168;21.040;2023-04-15T09:01:44;99659.75;;;10.07;91.46
75913;BME280;64592;52.168;21.040;2023-04-15T09:06:46;99665.22;;;10.17;90.74
75913;BME280;64592;52.168;21.040;2023-04-15T09:11:48;99664.25;;;10.18;91.22
75913;BME280;64592;52.168;21.040;2023-04-15T09:17:00;99672.06;;;10.21;90.86
75913;BME280;64592;52.168;21.040;2023-04-15T09:22:02;99671.22;;;10.21;90.61
75913;BME280;64592;52.168;21.040;2023-04-15T09:27:04;99669.22;;;10.23;91.63
75913;BME280;64592;52.168;21.040;2023-04-15T09:32:11;99668.25;;;10.24;90.96
75913;BME280;64592;52.168;21.040;2023-04-15T09:37:13;99671.78;;;10.24;90.59
75913;BME280;64592;52.168;21.040;2023-04-15T09:42:18;99665.06;;;10.30;91.70
75913;BME280;64592;52.168;21.040;2023-04-15T09:47:28;99678.66;;;10.28;91.01
75913;BME280;64592;52.168;21.040;2023-04-15T09:52:30;99680.22;;;10.31;90.95
75913;BME280;64592;52.168;21.040;2023-04-15T09:57:34;99679.72;;;10.37;91.28
75913;BME280;64592;52.168;21.040;2023-04-15T10:02:39;99678.44;;;10.41;91.26
75913;BME280;64592;52.168;21.040;2023-04-15T10:07:41;99682.13;;;10.40;91.11
75913;BME280;64592;52.168;21.040;2023-04-15T10:12:44;99680.03;;;10.43;91.03
75913;BME280;64592;52.168;21.040;2023-04-15T10:17:49;99682.56;;;10.45;91.67
75913;BME280;64592;52.168;21.040;2023-04-15T10:22:52;99685.88;;;10.48;91.95
75913;BME280;64592;52.168;21.040;2023-04-15T10:27:54;99683.06;;;10.50;91.26
75913;BME280;64592;52.168;21.040;2023-04-15T10:32:58;99682.31;;;10.48;91.14
75913;BME280;64592;52.168;21.040;2023-04-15T10:38:00;99682.19;;;10.49;90.97
75913;BME280;64592;52.168;21.040;2023-04-15T10:43:02;99694.56;;;10.52;90.89
75913;BME280;64592;52.168;21.040;2023-04-15T10:48:07;99683.31;;;10.47;91.24
75913;BME280;64592;52.168;21.040;2023-04-15T10:53:10;99688.69;;;10.47;91.30
75913;BME280;64592;52.168;21.040;2023-04-15T10:58:11;99694.41;;;10.54;91.79
75913;BME280;64592;52.168;21.040;2023-04-15T11:03:15;99705.06;;;10.55;91.74
75913;BME280;64592;52.168;21.040;2023-04-15T11:08:18;99697.72;;;10.57;91.57
75913;BME280;64592;52.168;21.040;2023-04-15T11:13:24;99693.19;;;10.58;91.52
75913;BME280;64592;52.168;21.040;2023-04-15T11:18:32;99695.13;;;10.56;91.15
75913;BME280;64592;52.168;21.040;2023-04-15T11:23:37;99701.38;;;10.56;90.85
75913;BME280;64592;52.168;21.040;2023-04-15T11:28:40;99702.38;;;10.55;91.10
75913;BME280;64592;52.168;21.040;2023-04-15T11:33:53;99704.81;;;10.58;90.91
75913;BME280;64592;52.168;21.040;2023-04-15T11:38:57;99703.22;;;10.56;91.84
75913;BME280;64592;52.168;21.040;2023-04-15T11:43:59;99711.19;;;10.57;91.90
75913;BME280;64592;52.168;21.040;2023-04-15T11:49:02;99714.63;;;10.59;92.33
75913;BME280;64592;52.168;21.040;2023-04-15T11:54:04;99711.63;;;10.62;92.67
75913;BME280;64592;52.168;21.040;2023-04-15T11:59:05;99713.34;;;10.63;91.86
75913;BME280;64592;52.168;21.040;2023-04-15T12:04:12;99725.00;;;10.64;91.58
75913;BME280;64592;52.168;21.040;2023-04-15T12:09:15;99732.09;;;10.65;92.18
75913;BME280;64592;52.168;21.040;2023-04-15T12:14:23;99740.19;;;10.65;92.33
75913;BME280;64592;52.168;21.040;2023-04-15T12:19:28;99743.19;;;10.71;90.45
75913;BME280;64592;52.168;21.040;2023-04-15T12:24:30;99749.03;;;10.76;89.65
75913;BME280;64592;52.168;21.040;2023-04-15T12:29:34;99759.81;;;10.76;86.22
75913;BME280;64592;52.168;21.040;2023-04-15T12:34:38;99754.19;;;10.79;86.84
75913;BME280;64592;52.168;21.040;2023-04-15T12:39:43;99757.19;;;10.86;86.66
75913;BME280;64592;52.168;21.040;2023-04-15T12:44:45;99759.97;;;10.96;87.07
75913;BME280;64592;52.168;21.040;2023-04-15T12:49:48;99762.56;;;11.07;84.95
75913;BME280;64592;52.168;21.040;2023-04-15T12:54:50;99765.47;;;11.15;85.01
75913;BME280;64592;52.168;21.040;2023-04-15T12:59:51;99768.09;;;11.26;84.99
75913;BME280;64592;52.168;21.040;2023-04-15T13:04:54;99775.22;;;11.37;84.65
75913;BME280;64592;52.168;21.040;2023-04-15T13:09:56;99778.41;;;11.51;83.37
75913;BME280;64592;52.168;21.040;2023-04-15T13:14:58;99780.00;;;11.54;81.85
75913;BME280;64592;52.168;21.040;2023-04-15T13:20:01;99796.31;;;11.52;78.79
75913;BME280;64592;52.168;21.040;2023-04-15T13:25:03;99790.31;;;11.49;79.85
75913;BME280;64592;52.168;21.040;2023-04-15T13:30:05;99788.94;;;11.54;79.08
75913;BME280;64592;52.168;21.040;2023-04-15T13:35:09;99800.09;;;11.71;79.07
75913;BME280;64592;52.168;21.040;2023-04-15T13:40:10;99811.81;;;11.81;80.21
75913;BME280;64592;52.168;21.040;2023-04-15T13:45:12;99808.84;;;11.84;81.00
75913;BME280;64592;52.168;21.040;2023-04-15T13:50:15;99820.63;;;11.83;79.03
75913;BME280;64592;52.168;21.040;2023-04-15T13:55:17;99803.84;;;11.79;79.20
75913;BME280;64592;52.168;21.040;2023-04-15T14:00:19;99812.09;;;11.78;79.77
75913;BME280;64592;52.168;21.040;2023-04-15T14:05:22;99806.69;;;11.78;79.41
75913;BME280;64592;52.168;21.040;2023-04-15T14:10:23;99801.47;;;11.95;80.90
75913;BME280;64592;52.168;21.040;2023-04-15T14:15:25;99816.44;;;11.99;78.69
75913;BME280;64592;52.168;21.040;2023-04-15T14:20:28;99820.00;;;12.00;79.18
75913;BME280;64592;52.168;21.040;2023-04-15T14:25:30;99815.41;;;11.91;78.67
75913;BME280;64592;52.168;21.040;2023-04-15T14:30:32;99818.50;;;11.86;79.50
75913;BME280;64592;52.168;21.040;2023-04-15T14:35:35;99823.03;;;11.86;79.97
75913;BME280;64592;52.168;21.040;2023-04-15T14:40:37;99816.94;;;11.84;80.29
75913;BME280;64592;52.168;21.040;2023-04-15T14:45:39;99820.63;;;11.83;79.74
75913;BME280;64592;52.168;21.040;2023-04-15T14:50:42;99832.84;;;11.87;78.73
75913;BME280;64592;52.168;21.040;2023-04-15T14:55:43;99833.91;;;12.05;78.33
75913;BME280;64592;52.168;21.040;2023-04-15T15:00:45;99840.09;;;12.45;77.19
75913;BME280;64592;52.168;21.040;2023-04-15T15:05:48;99853.22;;;12.69;75.93
75913;BME280;64592;52.168;21.040;2023-04-15T15:10:50;99856.50;;;12.73;73.85
75913;BME280;64592;52.168;21.040;2023-04-15T15:15:52;99855.91;;;12.60;74.22
75913;BME280;64592;52.168;21.040;2023-04-15T15:20:55;99859.75;;;12.48;74.79
75913;BME280;64592;52.168;21.040;2023-04-15T15:25:57;99856.75;;;12.41;74.98
75913;BME280;64592;52.168;21.040;2023-04-15T15:30:59;99863.19;;;12.50;74.08
75913;BME280;64592;52.168;21.040;2023-04-15T15:36:02;99867.75;;;13.07;70.96
75913;BME280;64592;52.168;21.040;2023-04-15T15:41:04;99868.00;;;13.42;69.05
75913;BME280;64592;52.168;21.040;2023-04-15T15:46:07;99874.59;;;13.40;69.25
75913;BME280;64592;52.168;21.040;2023-04-15T15:51:10;99866.06;;;13.15;70.24
75913;BME280;64592;52.168;21.040;2023-04-15T15:56:12;99877.44;;;12.90;70.26
75913;BME280;64592;52.168;21.040;2023-04-15T16:01:13;99881.44;;;12.67;72.18
75913;BME280;64592;52.168;21.040;2023-04-15T16:06:16;99891.94;;;12.51;72.12
75913;BME280;64592;52.168;21.040;2023-04-15T16:11:18;99893.31;;;12.35;72.22
75913;BME280;64592;52.168;21.040;2023-04-15T16:16:20;99907.47;;;12.18;72.35
75913;BME280;64592;52.168;21.040;2023-04-15T16:21:23;99909.13;;;12.00;73.33
75913;BME280;64592;52.168;21.040;2023-04-15T16:26:26;99915.06;;;11.94;73.50
75913;BME280;64592;52.168;21.040;2023-04-15T16:31:28;99909.34;;;11.87;74.80
75913;BME280;64592;52.168;21.040;2023-04-15T16:36:33;99923.25;;;11.83;74.38
75913;BME280;64592;52.168;21.040;2023-04-15T16:41:35;99928.06;;;11.79;74.50
75913;BME280;64592;52.168;21.040;2023-04-15T16:46:37;99937.06;;;11.68;74.63
75913;BME280;64592;52.168;21.040;2023-04-15T16:51:40;99942.28;;;11.60;75.58
75913;BME280;64592;52.168;21.040;2023-04-15T16:56:42;99950.19;;;11.52;76.18
75913;BME280;64592;52.168;21.040;2023-04-15T17:01:44;99956.50;;;11.42;76.83
75913;BME280;64592;52.168;21.040;2023-04-15T17:06:47;99952.59;;;11.35;77.15
75913;BME280;64592;52.168;21.040;2023-04-15T17:11:49;99971.16;;;11.28;77.68
75913;BME280;64592;52.168;21.040;2023-04-15T17:16:50;99973.91;;;11.17;78.84
75913;BME280;64592;52.168;21.040;2023-04-15T17:21:54;99975.03;;;11.14;78.87
75913;BME280;64592;52.168;21.040;2023-04-15T17:26:57;99987.19;;;11.09;78.73
75913;BME280;64592;52.168;21.040;2023-04-15T17:31:59;99987.56;;;11.04;79.16
75913;BME280;64592;52.168;21.040;2023-04-15T17:37:02;99988.59;;;10.92;79.21
75913;BME280;64592;52.168;21.040;2023-04-15T17:42:04;99989.84;;;10.88;79.08
75913;BME280;64592;52.168;21.040;2023-04-15T17:47:05;100011.78;;;10.83;79.21
75913;BME280;64592;52.168;21.040;2023-04-15T17:52:08;100026.03;;;10.74;79.18
75913;BME280;64592;52.168;21.040;2023-04-15T17:57:10;100039.00;;;10.69;79.41
75913;BME280;64592;52.168;21.040;2023-04-15T18:02:12;100044.41;;;10.69;79.30
75913;BME280;64592;52.168;21.040;2023-04-15T18:07:15;100056.66;;;10.62;79.05
75913;BME280;64592;52.168;21.040;2023-04-15T18:12:17;100055.31;;;10.57;79.43
75913;BME280;64592;52.168;21.040;2023-04-15T18:17:18;100077.25;;;10.52;78.66
75913;BME280;64592;52.168;21.040;2023-04-15T18:22:21;100077.59;;;10.47;78.99
75913;BME280;64592;52.168;21.040;2023-04-15T18:27:23;100089.25;;;10.48;78.41
75913;BME280;64592;52.168;21.040;2023-04-15T18:32:25;100093.41;;;10.41;78.83
75913;BME280;64592;52.168;21.040;2023-04-15T18:37:30;100093.63;;;10.38;78.40
75913;BME280;64592;52.168;21.040;2023-04-15T18:42:31;100093.91;;;10.35;78.33
75913;BME280;64592;52.168;21.040;2023-04-15T18:47:33;100097.78;;;10.31;78.33
75913;BME280;64592;52.168;21.040;2023-04-15T18:52:36;100096.09;;;10.30;79.01
75913;BME280;64592;52.168;21.040;2023-04-15T18:57:38;100101.59;;;10.28;79.49
75913;BME280;64592;52.168;21.040;2023-04-15T19:02:43;100102.22;;;10.21;79.60
75913;BME280;64592;52.168;21.040;2023-04-15T19:07:47;100105.97;;;10.18;79.57
75913;BME280;64592;52.168;21.040;2023-04-15T19:12:48;100100.69;;;10.17;79.98
75913;BME280;64592;52.168;21.040;2023-04-15T19:17:50;100118.19;;;10.11;79.50
75913;BME280;64592;52.168;21.040;2023-04-15T19:22:54;100128.56;;;10.04;80.14
75913;BME280;64592;52.168;21.040;2023-04-15T19:27:56;100135.78;;;10.04;79.79
75913;BME280;64592;52.168;21.040;2023-04-15T19:32:58;100139.06;;;9.96;80.32
75913;BME280;64592;52.168;21.040;2023-04-15T19:38:01;100143.59;;;9.96;80.36
75913;BME280;64592;52.168;21.040;2023-04-15T19:43:03;100143.97;;;9.91;80.22
75913;BME280;64592;52.168;21.040;2023-04-15T19:48:05;100150.81;;;9.95;80.05
75913;BME280;64592;52.168;21.040;2023-04-15T19:53:08;100154.72;;;9.91;80.24
75913;BME280;64592;52.168;21.040;2023-04-15T19:58:09;100159.72;;;9.85;79.71
75913;BME280;64592;52.168;21.040;2023-04-15T20:03:11;100175.13;;;9.83;80.27
75913;BME280;64592;52.168;21.040;2023-04-15T20:08:14;100165.44;;;9.80;80.70
75913;BME280;64592;52.168;21.040;2023-04-15T20:13:16;100170.06;;;9.78;81.18
75913;BME280;64592;52.168;21.040;2023-04-15T20:18:17;100169.34;;;9.76;80.72
75913;BME280;64592;52.168;21.040;2023-04-15T20:23:20;100170.66;;;9.70;80.83
75913;BME280;64592;52.168;21.040;2023-04-15T20:28:22;100169.66;;;9.71;80.16
75913;BME280;64592;52.168;21.040;2023-04-15T20:33:26;100175.81;;;9.73;81.02
75913;BME280;64592;52.168;21.040;2023-04-15T20:38:29;100172.34;;;9.71;81.63
75913;BME280;64592;52.168;21.040;2023-04-15T20:43:31;100168.81;;;9.71;81.55
75913;BME280;64592;52.168;21.040;2023-04-15T20:48:33;100164.66;;;9.67;81.01
75913;BME280;64592;52.168;21.040;2023-04-15T20:53:36;100172.72;;;9.67;81.68
75913;BME280;64592;52.168;21.040;2023-04-15T20:58:37;100179.06;;;9.66;81.96
75913;BME280;64592;52.168;21.040;2023-04-15T21:03:39;100174.66;;;9.65;81.56
75913;BME280;64592;52.168;21.040;2023-04-15T21:08:42;100182.63;;;9.66;81.50
75913;BME280;64592;52.168;21.040;2023-04-15T21:13:44;100180.28;;;9.62;81.97
75913;BME280;64592;52.168;21.040;2023-04-15T21:18:46;100180.28;;;9.62;81.87
75913;BME280;64592;52.168;21.040;2023-04-15T21:23:49;100181.38;;;9.59;82.00
75913;BME280;64592;52.168;21.040;2023-04-15T21:28:50;100181.94;;;9.52;82.00
75913;BME280;64592;52.168;21.040;2023-04-15T21:33:52;100187.41;;;9.50;82.64
75913;BME280;64592;52.168;21.040;2023-04-15T21:38:55;100185.59;;;9.51;81.89
75913;BME280;64592;52.168;21.040;2023-04-15T21:43:57;100191.72;;;9.53;82.53
75913;BME280;64592;52.168;21.040;2023-04-15T21:48:58;100190.22;;;9.49;81.84
75913;BME280;64592;52.168;21.040;2023-04-15T21:54:01;100195.59;;;9.49;81.99
75913;BME280;64592;52.168;21.040;2023-04-15T21:59:03;100199.03;;;9.51;82.27
75913;BME280;64592;52.168;21.040;2023-04-15T22:04:05;100197.31;;;9.50;82.88
75913;BME280;64592;52.168;21.040;2023-04-15T22:09:08;100204.00;;;9.44;82.09
75913;BME280;64592;52.168;21.040;2023-04-15T22:14:10;100209.00;;;9.38;82.65
75913;BME280;64592;52.168;21.040;2023-04-15T22:19:12;100216.31;;;9.35;83.25
75913;BME280;64592;52.168;21.040;2023-04-15T22:24:15;100219.34;;;9.31;82.86
75913;BME280;64592;52.168;21.040;2023-04-15T22:29:17;100233.97;;;9.27;83.53
75913;BME280;64592;52.168;21.040;2023-04-15T22:34:19;100235.06;;;9.24;83.39
75913;BME280;64592;52.168;21.040;2023-04-15T22:39:22;100240.66;;;9.21;84.26
75913;BME280;64592;52.168;21.040;2023-04-15T22:44:24;100249.91;;;9.17;83.59
75913;BME280;64592;52.168;21.040;2023-04-15T22:49:25;100246.28;;;9.18;83.63
75913;BME280;64592;52.168;21.040;2023-04-15T22:54:28;100245.00;;;9.11;84.60
75913;BME280;64592;52.168;21.040;2023-04-15T22:59:30;100255.94;;;9.08;84.65
75913;BME280;64592;52.168;21.040;2023-04-15T23:04:32;100249.91;;;9.05;85.20
75913;BME280;64592;52.168;21.040;2023-04-15T23:09:35;100250.78;;;9.05;84.89
75913;BME280;64592;52.168;21.040;2023-04-15T23:14:37;100255.19;;;9.06;84.37
75913;BME280;64592;52.168;21.040;2023-04-15T23:19:39;100251.63;;;9.06;85.59
75913;BME280;64592;52.168;21.040;2023-04-15T23:24:42;100245.41;;;9.05;84.82
75913;BME280;64592;52.168;21.040;2023-04-15T23:29:43;100248.53;;;8.99;85.47
75913;BME280;64592;52.168;21.040;2023-04-15T23:34:45;100255.09;;;8.95;85.62
75913;BME280;64592;52.168;21.040;2023-04-15T23:39:48;100261.09;;;8.99;86.13
75913;BME280;64592;52.168;21.040;2023-04-15T23:44:49;100258.75;;;8.94;85.97
75913;BME280;64592;52.168;21.040;2023-04-15T23:49:51;100262.31;;;8.94;86.00
75913;BME280;64592;52.168;21.040;2023-04-15T23:54:54;100267.03;;;8.91;86.19
75913;BME280;64592;52.168;21.040;2023-04-15T23:59:56;100268.84;;;8.90;86.66
